sensor_id;sensor_type;location;lat;lon;timestamp;P1;durP1;ratioP1;P2;durP2;ratioP2
69358;SDS011;56520;49.066;8.660;2024-01-07T00:02:22;6.55;;;2.55;;
69358;SDS011;56520;49.066;8.660;2024-01-07T00:04:48;7.47;;;3.22;;
69358;SDS011;56520;49.066;8.660;2024-01-07T00:07:13;6.53;;;2.42;;
69358;SDS011;56520;49.066;8.660;2024-01-07T00:12:04;7.47;;;2.30;;
69358;SDS011;56520;49.066;8.660;2024-01-07T00:16:55;6.40;;;2.57;;
69358;SDS011;56520;49.066;8.660;2024-01-07T00:21:45;6.13;;;2.67;;
69358;SDS011;56520;49.066;8.660;2024-01-07T00:26:36;7.10;;;2.72;;
69358;SDS011;56520;49.066;8.660;2024-01-07T00:29:02;5.75;;;2.72;;
69358;SDS011;56520;49.066;8.660;2024-01-07T00:31:27;6.28;;;2.38;;
69358;SDS011;56520;49.066;8.660;2024-01-07T00:33:52;7.45;;;2.38;;
69358;SDS011;56520;49.066;8.660;2024-01-07T00:36:18;6.07;;;2.65;;
69358;SDS011;56520;49.066;8.660;2024-01-07T00:38:43;5.72;;;2.38;;
69358;SDS011;56520;49.066;8.660;2024-01-07T00:43:34;5.73;;;2.53;;
69358;SDS011;56520;49.066;8.660;2024-01-07T00:45:59;6.75;;;2.70;;
69358;SDS011;56520;49.066;8.660;2024-01-07T00:48:25;9.15;;;2.92;;
69358;SDS011;56520;49.066;8.660;2024-01-07T00:50:50;7.78;;;2.40;;
69358;SDS011;56520;49.066;8.660;2024-01-07T00:53:15;7.65;;;3.03;;
69358;SDS011;56520;49.066;8.660;2024-01-07T00:55:41;7.60;;;2.67;;
69358;SDS011;56520;49.066;8.660;2024-01-07T00:58:06;7.10;;;2.55;;
69358;SDS011;56520;49.066;8.660;2024-01-07T01:00:32;7.43;;;2.60;;
69358;SDS011;56520;49.066;8.660;2024-01-07T01:02:57;6.88;;;2.80;;
69358;SDS011;56520;49.066;8.660;2024-01-07T01:05:23;7.32;;;2.83;;
69358;SDS011;56520;49.066;8.660;2024-01-07T01:07:48;6.40;;;2.67;;
69358;SDS011;56520;49.066;8.660;2024-01-07T01:10:14;7.20;;;3.13;;
69358;SDS011;56520;49.066;8.660;2024-01-07T01:12:42;9.10;;;3.83;;
69358;SDS011;56520;49.066;8.660;2024-01-07T01:15:07;9.35;;;3.33;;
69358;SDS011;56520;49.066;8.660;2024-01-07T01:17:33;6.38;;;2.67;;
69358;SDS011;56520;49.066;8.660;2024-01-07T01:19:59;7.43;;;2.80;;
69358;SDS011;56520;49.066;8.660;2024-01-07T01:22:24;7.20;;;2.85;;
69358;SDS011;56520;49.066;8.660;2024-01-07T01:24:49;6.90;;;2.88;;
69358;SDS011;56520;49.066;8.660;2024-01-07T01:27:16;7.60;;;2.40;;
69358;SDS011;56520;49.066;8.660;2024-01-07T01:29:41;7.32;;;2.88;;
69358;SDS011;56520;49.066;8.660;2024-01-07T01:32:07;5.60;;;1.83;;
69358;SDS011;56520;49.066;8.660;2024-01-07T01:34:32;9.15;;;2.85;;
69358;SDS011;56520;49.066;8.660;2024-01-07T01:39:23;9.73;;;3.20;;
69358;SDS011;56520;49.066;8.660;2024-01-07T01:41:48;7.53;;;2.80;;
69358;SDS011;56520;49.066;8.660;2024-01-07T01:44:14;6.00;;;2.53;;
69358;SDS011;56520;49.066;8.660;2024-01-07T01:46:39;7.00;;;3.00;;
69358;SDS011;56520;49.066;8.660;2024-01-07T01:49:05;8.60;;;2.75;;
69358;SDS011;56520;49.066;8.660;2024-01-07T01:51:32;6.13;;;2.40;;
69358;SDS011;56520;49.066;8.660;2024-01-07T01:53:58;8.95;;;3.08;;
69358;SDS011;56520;49.066;8.660;2024-01-07T01:56:25;6.20;;;2.50;;
69358;SDS011;56520;49.066;8.660;2024-01-07T01:58:52;8.35;;;2.38;;
69358;SDS011;56520;49.066;8.660;2024-01-07T02:01:18;8.43;;;2.80;;
69358;SDS011;56520;49.066;8.660;2024-01-07T02:03:43;6.72;;;2.08;;
69358;SDS011;56520;49.066;8.660;2024-01-07T02:06:09;8.85;;;2.90;;
69358;SDS011;56520;49.066;8.660;2024-01-07T02:08:36;7.90;;;3.35;;
69358;SDS011;56520;49.066;8.660;2024-01-07T02:11:21;5.63;;;2.40;;
69358;SDS011;56520;49.066;8.660;2024-01-07T02:13:47;8.50;;;3.00;;
69358;SDS011;56520;49.066;8.660;2024-01-07T02:18:43;7.25;;;2.80;;
69358;SDS011;56520;49.066;8.660;2024-01-07T02:21:09;8.50;;;3.25;;
69358;SDS011;56520;49.066;8.660;2024-01-07T02:23:35;5.90;;;2.58;;
69358;SDS011;56520;49.066;8.660;2024-01-07T02:28:26;6.90;;;3.10;;
69358;SDS011;56520;49.066;8.660;2024-01-07T02:33:17;5.68;;;2.40;;
69358;SDS011;56520;49.066;8.660;2024-01-07T02:38:08;4.78;;;2.05;;
69358;SDS011;56520;49.066;8.660;2024-01-07T02:40:33;6.53;;;2.95;;
69358;SDS011;56520;49.066;8.660;2024-01-07T02:42:59;7.50;;;2.55;;
69358;SDS011;56520;49.066;8.660;2024-01-07T02:45:24;6.00;;;2.47;;
69358;SDS011;56520;49.066;8.660;2024-01-07T02:50:15;4.63;;;1.73;;
69358;SDS011;56520;49.066;8.660;2024-01-07T02:52:43;5.35;;;2.33;;
69358;SDS011;56520;49.066;8.660;2024-01-07T02:57:34;6.30;;;2.47;;
69358;SDS011;56520;49.066;8.660;2024-01-07T03:02:25;4.53;;;2.07;;
69358;SDS011;56520;49.066;8.660;2024-01-07T03:07:16;5.37;;;1.70;;
69358;SDS011;56520;49.066;8.660;2024-01-07T03:12:06;5.00;;;1.95;;
69358;SDS011;56520;49.066;8.660;2024-01-07T03:16:57;4.60;;;1.40;;
69358;SDS011;56520;49.066;8.660;2024-01-07T03:19:22;4.47;;;1.73;;
69358;SDS011;56520;49.066;8.660;2024-01-07T03:21:48;5.57;;;1.88;;
69358;SDS011;56520;49.066;8.660;2024-01-07T03:26:39;6.80;;;2.13;;
69358;SDS011;56520;49.066;8.660;2024-01-07T03:29:04;5.20;;;1.85;;
69358;SDS011;56520;49.066;8.660;2024-01-07T03:31:30;5.38;;;2.05;;
69358;SDS011;56520;49.066;8.660;2024-01-07T03:36:21;4.03;;;1.42;;
69358;SDS011;56520;49.066;8.660;2024-01-07T03:41:15;3.90;;;1.60;;
69358;SDS011;56520;49.066;8.660;2024-01-07T03:43:44;3.25;;;1.20;;
69358;SDS011;56520;49.066;8.660;2024-01-07T03:46:14;2.47;;;0.88;;
69358;SDS011;56520;49.066;8.660;2024-01-07T03:48:40;3.35;;;1.00;;
69358;SDS011;56520;49.066;8.660;2024-01-07T03:51:06;4.65;;;1.65;;
69358;SDS011;56520;49.066;8.660;2024-01-07T03:55:57;3.00;;;1.23;;
69358;SDS011;56520;49.066;8.660;2024-01-07T04:00:48;3.93;;;1.23;;
69358;SDS011;56520;49.066;8.660;2024-01-07T04:05:39;3.03;;;1.37;;
69358;SDS011;56520;49.066;8.660;2024-01-07T04:08:04;3.45;;;1.40;;
69358;SDS011;56520;49.066;8.660;2024-01-07T04:10:30;3.53;;;1.42;;
69358;SDS011;56520;49.066;8.660;2024-01-07T04:12:55;5.05;;;1.67;;
69358;SDS011;56520;49.066;8.660;2024-01-07T04:15:21;3.88;;;1.58;;
69358;SDS011;56520;49.066;8.660;2024-01-07T04:17:46;5.28;;;1.52;;
69358;SDS011;56520;49.066;8.660;2024-01-07T04:20:12;4.30;;;1.35;;
69358;SDS011;56520;49.066;8.660;2024-01-07T04:22:39;6.30;;;1.45;;
69358;SDS011;56520;49.066;8.660;2024-01-07T04:25:04;4.10;;;1.50;;
69358;SDS011;56520;49.066;8.660;2024-01-07T04:27:33;3.65;;;1.25;;
69358;SDS011;56520;49.066;8.660;2024-01-07T04:30:00;5.70;;;1.85;;
69358;SDS011;56520;49.066;8.660;2024-01-07T04:32:26;5.95;;;2.10;;
69358;SDS011;56520;49.066;8.660;2024-01-07T04:34:51;5.65;;;2.22;;
69358;SDS011;56520;49.066;8.660;2024-01-07T04:37:17;5.50;;;1.63;;
69358;SDS011;56520;49.066;8.660;2024-01-07T04:39:42;7.03;;;2.10;;
69358;SDS011;56520;49.066;8.660;2024-01-07T04:42:08;6.38;;;1.60;;
69358;SDS011;56520;49.066;8.660;2024-01-07T04:44:33;5.70;;;1.67;;
69358;SDS011;56520;49.066;8.660;2024-01-07T04:46:58;6.53;;;2.90;;
69358;SDS011;56520;49.066;8.660;2024-01-07T04:49:24;5.32;;;1.90;;
69358;SDS011;56520;49.066;8.660;2024-01-07T04:51:49;6.35;;;2.28;;
69358;SDS011;56520;49.066;8.660;2024-01-07T04:54:14;6.30;;;2.08;;
69358;SDS011;56520;49.066;8.660;2024-01-07T04:56:40;5.72;;;1.88;;
69358;SDS011;56520;49.066;8.660;2024-01-07T04:59:05;4.00;;;1.65;;
69358;SDS011;56520;49.066;8.660;2024-01-07T05:01:34;5.50;;;2.05;;
69358;SDS011;56520;49.066;8.660;2024-01-07T05:04:00;4.25;;;1.92;;
69358;SDS011;56520;49.066;8.660;2024-01-07T05:08:51;4.47;;;1.63;;
69358;SDS011;56520;49.066;8.660;2024-01-07T05:11:16;6.90;;;1.58;;
69358;SDS011;56520;49.066;8.660;2024-01-07T05:13:42;5.22;;;2.00;;
69358;SDS011;56520;49.066;8.660;2024-01-07T05:18:33;3.87;;;1.50;;
69358;SDS011;56520;49.066;8.660;2024-01-07T05:23:23;4.17;;;1.83;;
69358;SDS011;56520;49.066;8.660;2024-01-07T05:25:49;4.22;;;1.65;;
69358;SDS011;56520;49.066;8.660;2024-01-07T05:28:14;5.25;;;1.92;;
69358;SDS011;56520;49.066;8.660;2024-01-07T05:30:44;7.97;;;2.30;;
69358;SDS011;56520;49.066;8.660;2024-01-07T05:33:09;7.03;;;1.90;;
69358;SDS011;56520;49.066;8.660;2024-01-07T05:35:35;5.65;;;2.20;;
69358;SDS011;56520;49.066;8.660;2024-01-07T05:38:00;5.25;;;1.92;;
69358;SDS011;56520;49.066;8.660;2024-01-07T05:40:26;3.78;;;1.40;;
69358;SDS011;56520;49.066;8.660;2024-01-07T05:42:51;5.28;;;1.73;;
69358;SDS011;56520;49.066;8.660;2024-01-07T05:47:42;4.07;;;1.53;;
69358;SDS011;56520;49.066;8.660;2024-01-07T05:52:36;4.22;;;1.83;;
69358;SDS011;56520;49.066;8.660;2024-01-07T05:57:26;4.40;;;1.50;;
69358;SDS011;56520;49.066;8.660;2024-01-07T05:59:52;4.70;;;1.60;;
69358;SDS011;56520;49.066;8.660;2024-01-07T06:02:17;4.38;;;1.73;;
69358;SDS011;56520;49.066;8.660;2024-01-07T06:04:43;6.20;;;1.90;;
69358;SDS011;56520;49.066;8.660;2024-01-07T06:07:08;5.45;;;2.00;;
69358;SDS011;56520;49.066;8.660;2024-01-07T06:09:34;5.80;;;2.47;;
69358;SDS011;56520;49.066;8.660;2024-01-07T06:11:59;5.32;;;1.85;;
69358;SDS011;56520;49.066;8.660;2024-01-07T06:14:25;5.15;;;2.10;;
69358;SDS011;56520;49.066;8.660;2024-01-07T06:16:50;4.75;;;1.80;;
69358;SDS011;56520;49.066;8.660;2024-01-07T06:19:17;8.85;;;2.10;;
69358;SDS011;56520;49.066;8.660;2024-01-07T06:24:08;4.73;;;2.13;;
69358;SDS011;56520;49.066;8.660;2024-01-07T06:28:59;3.28;;;1.30;;
69358;SDS011;56520;49.066;8.660;2024-01-07T06:33:50;2.78;;;1.48;;
69358;SDS011;56520;49.066;8.660;2024-01-07T06:36:16;4.60;;;1.83;;
69358;SDS011;56520;49.066;8.660;2024-01-07T06:41:06;3.57;;;1.50;;
69358;SDS011;56520;49.066;8.660;2024-01-07T06:45:57;2.80;;;0.97;;
69358;SDS011;56520;49.066;8.660;2024-01-07T06:48:22;4.05;;;1.48;;
69358;SDS011;56520;49.066;8.660;2024-01-07T06:50:48;6.43;;;2.40;;
69358;SDS011;56520;49.066;8.660;2024-01-07T06:53:13;4.30;;;1.70;;
69358;SDS011;56520;49.066;8.660;2024-01-07T06:55:39;5.05;;;1.75;;
69358;SDS011;56520;49.066;8.660;2024-01-07T07:00:29;3.35;;;1.25;;
69358;SDS011;56520;49.066;8.660;2024-01-07T07:02:55;3.95;;;1.50;;
69358;SDS011;56520;49.066;8.660;2024-01-07T07:05:20;5.18;;;1.88;;
69358;SDS011;56520;49.066;8.660;2024-01-07T07:07:46;4.47;;;1.58;;
69358;SDS011;56520;49.066;8.660;2024-01-07T07:10:11;4.43;;;1.65;;
69358;SDS011;56520;49.066;8.660;2024-01-07T07:15:02;5.33;;;2.83;;
69358;SDS011;56520;49.066;8.660;2024-01-07T07:17:27;7.68;;;2.30;;
69358;SDS011;56520;49.066;8.660;2024-01-07T07:19:53;5.78;;;1.77;;
69358;SDS011;56520;49.066;8.660;2024-01-07T07:24:43;4.10;;;1.63;;
69358;SDS011;56520;49.066;8.660;2024-01-07T07:29:34;2.80;;;1.15;;
69358;SDS011;56520;49.066;8.660;2024-01-07T07:32:00;4.57;;;2.08;;
69358;SDS011;56520;49.066;8.660;2024-01-07T07:34:25;3.65;;;1.42;;
69358;SDS011;56520;49.066;8.660;2024-01-07T07:39:16;7.03;;;1.92;;
69358;SDS011;56520;49.066;8.660;2024-01-07T07:41:42;5.63;;;2.03;;
69358;SDS011;56520;49.066;8.660;2024-01-07T07:44:07;3.67;;;1.50;;
69358;SDS011;56520;49.066;8.660;2024-01-07T07:48:58;3.50;;;1.53;;
69358;SDS011;56520;49.066;8.660;2024-01-07T07:53:49;4.55;;;1.48;;
69358;SDS011;56520;49.066;8.660;2024-01-07T07:58:39;4.33;;;1.50;;
69358;SDS011;56520;49.066;8.660;2024-01-07T08:03:31;5.88;;;1.88;;
69358;SDS011;56520;49.066;8.660;2024-01-07T08:08:22;3.30;;;1.53;;
69358;SDS011;56520;49.066;8.660;2024-01-07T08:13:13;3.63;;;1.83;;
69358;SDS011;56520;49.066;8.660;2024-01-07T08:15:38;6.05;;;2.08;;
69358;SDS011;56520;49.066;8.660;2024-01-07T08:18:04;5.47;;;2.08;;
69358;SDS011;56520;49.066;8.660;2024-01-07T08:22:55;2.78;;;1.25;;
69358;SDS011;56520;49.066;8.660;2024-01-07T08:25:21;6.95;;;1.70;;
69358;SDS011;56520;49.066;8.660;2024-01-07T08:27:47;5.78;;;1.42;;
69358;SDS011;56520;49.066;8.660;2024-01-07T08:32:38;5.07;;;2.10;;
69358;SDS011;56520;49.066;8.660;2024-01-07T08:35:04;4.10;;;1.48;;
69358;SDS011;56520;49.066;8.660;2024-01-07T08:39:55;3.65;;;1.60;;
69358;SDS011;56520;49.066;8.660;2024-01-07T08:44:46;4.50;;;1.97;;
69358;SDS011;56520;49.066;8.660;2024-01-07T08:47:12;6.63;;;1.80;;
69358;SDS011;56520;49.066;8.660;2024-01-07T08:52:04;4.53;;;1.73;;
69358;SDS011;56520;49.066;8.660;2024-01-07T08:54:29;6.32;;;2.22;;
69358;SDS011;56520;49.066;8.660;2024-01-07T08:56:55;5.20;;;2.22;;
69358;SDS011;56520;49.066;8.660;2024-01-07T08:59:20;8.20;;;2.30;;
69358;SDS011;56520;49.066;8.660;2024-01-07T09:01:46;5.90;;;2.10;;
69358;SDS011;56520;49.066;8.660;2024-01-07T09:04:11;4.95;;;1.73;;
69358;SDS011;56520;49.066;8.660;2024-01-07T09:06:37;6.50;;;1.58;;
69358;SDS011;56520;49.066;8.660;2024-01-07T09:09:02;5.53;;;1.83;;
69358;SDS011;56520;49.066;8.660;2024-01-07T09:11:31;5.32;;;2.10;;
69358;SDS011;56520;49.066;8.660;2024-01-07T09:16:22;6.40;;;2.30;;
69358;SDS011;56520;49.066;8.660;2024-01-07T09:21:12;5.47;;;2.00;;
69358;SDS011;56520;49.066;8.660;2024-01-07T09:23:39;4.47;;;1.88;;
69358;SDS011;56520;49.066;8.660;2024-01-07T09:26:04;6.43;;;2.25;;
69358;SDS011;56520;49.066;8.660;2024-01-07T09:28:30;5.13;;;2.13;;
69358;SDS011;56520;49.066;8.660;2024-01-07T09:30:55;5.65;;;2.28;;
69358;SDS011;56520;49.066;8.660;2024-01-07T09:33:20;5.70;;;2.03;;
69358;SDS011;56520;49.066;8.660;2024-01-07T09:35:48;5.20;;;2.45;;
69358;SDS011;56520;49.066;8.660;2024-01-07T09:38:14;4.90;;;2.03;;
69358;SDS011;56520;49.066;8.660;2024-01-07T09:43:06;4.25;;;1.67;;
69358;SDS011;56520;49.066;8.660;2024-01-07T09:47:57;5.57;;;2.30;;
69358;SDS011;56520;49.066;8.660;2024-01-07T09:52:48;4.57;;;1.67;;
69358;SDS011;56520;49.066;8.660;2024-01-07T09:55:22;3.95;;;1.80;;
69358;SDS011;56520;49.066;8.660;2024-01-07T09:57:54;5.43;;;1.90;;
69358;SDS011;56520;49.066;8.660;2024-01-07T10:00:20;4.80;;;1.83;;
69358;SDS011;56520;49.066;8.660;2024-01-07T10:02:45;3.97;;;1.60;;
69358;SDS011;56520;49.066;8.660;2024-01-07T10:05:11;8.05;;;2.55;;
69358;SDS011;56520;49.066;8.660;2024-01-07T10:07:36;5.80;;;2.22;;
69358;SDS011;56520;49.066;8.660;2024-01-07T10:10:12;4.85;;;1.73;;
69358;SDS011;56520;49.066;8.660;2024-01-07T10:12:43;5.07;;;2.03;;
69358;SDS011;56520;49.066;8.660;2024-01-07T10:15:10;5.20;;;2.25;;
69358;SDS011;56520;49.066;8.660;2024-01-07T10:17:35;3.65;;;1.40;;
69358;SDS011;56520;49.066;8.660;2024-01-07T10:20:01;4.75;;;1.77;;
69358;SDS011;56520;49.066;8.660;2024-01-07T10:22:26;4.43;;;1.60;;
69358;SDS011;56520;49.066;8.660;2024-01-07T10:24:52;4.15;;;1.42;;
69358;SDS011;56520;49.066;8.660;2024-01-07T10:27:17;3.92;;;1.60;;
69358;SDS011;56520;49.066;8.660;2024-01-07T10:29:43;4.35;;;1.48;;
69358;SDS011;56520;49.066;8.660;2024-01-07T10:32:09;4.40;;;1.50;;
69358;SDS011;56520;49.066;8.660;2024-01-07T10:34:35;4.25;;;1.42;;
69358;SDS011;56520;49.066;8.660;2024-01-07T10:37:01;4.90;;;1.55;;
69358;SDS011;56520;49.066;8.660;2024-01-07T10:39:29;4.35;;;1.65;;
69358;SDS011;56520;49.066;8.660;2024-01-07T10:41:55;3.88;;;1.50;;
69358;SDS011;56520;49.066;8.660;2024-01-07T10:44:28;4.70;;;2.10;;
69358;SDS011;56520;49.066;8.660;2024-01-07T10:46:55;5.13;;;1.60;;
69358;SDS011;56520;49.066;8.660;2024-01-07T10:49:22;3.47;;;1.40;;
69358;SDS011;56520;49.066;8.660;2024-01-07T10:51:56;5.93;;;2.28;;
69358;SDS011;56520;49.066;8.660;2024-01-07T10:54:30;3.92;;;1.83;;
69358;SDS011;56520;49.066;8.660;2024-01-07T10:56:58;6.30;;;1.80;;
69358;SDS011;56520;49.066;8.660;2024-01-07T10:59:28;2.13;;;0.98;;
69358;SDS011;56520;49.066;8.660;2024-01-07T11:01:57;3.35;;;1.40;;
69358;SDS011;56520;49.066;8.660;2024-01-07T11:04:23;4.30;;;1.33;;
69358;SDS011;56520;49.066;8.660;2024-01-07T11:07:12;4.10;;;1.50;;
69358;SDS011;56520;49.066;8.660;2024-01-07T11:12:18;3.15;;;1.40;;
69358;SDS011;56520;49.066;8.660;2024-01-07T11:20:06;3.38;;;1.40;;
69358;SDS011;56520;49.066;8.660;2024-01-07T11:22:37;4.05;;;1.55;;
69358;SDS011;56520;49.066;8.660;2024-01-07T11:27:48;4.45;;;1.83;;
69358;SDS011;56520;49.066;8.660;2024-01-07T11:32:45;2.03;;;0.90;;
69358;SDS011;56520;49.066;8.660;2024-01-07T11:35:13;3.45;;;0.88;;
69358;SDS011;56520;49.066;8.660;2024-01-07T11:37:40;3.63;;;1.15;;
69358;SDS011;56520;49.066;8.660;2024-01-07T11:42:32;2.92;;;1.20;;
69358;SDS011;56520;49.066;8.660;2024-01-07T11:47:23;2.20;;;0.88;;
69358;SDS011;56520;49.066;8.660;2024-01-07T11:49:52;2.10;;;0.98;;
69358;SDS011;56520;49.066;8.660;2024-01-07T11:54:44;2.03;;;0.98;;
69358;SDS011;56520;49.066;8.660;2024-01-07T11:57:10;4.20;;;2.08;;
69358;SDS011;56520;49.066;8.660;2024-01-07T11:59:35;2.45;;;1.05;;
69358;SDS011;56520;49.066;8.660;2024-01-07T12:02:02;3.00;;;1.25;;
69358;SDS011;56520;49.066;8.660;2024-01-07T12:04:34;4.63;;;1.80;;
69358;SDS011;56520;49.066;8.660;2024-01-07T12:07:00;4.30;;;1.65;;
69358;SDS011;56520;49.066;8.660;2024-01-07T12:09:26;3.08;;;1.17;;
69358;SDS011;56520;49.066;8.660;2024-01-07T12:11:52;6.53;;;2.70;;
69358;SDS011;56520;49.066;8.660;2024-01-07T12:14:18;3.20;;;1.30;;
69358;SDS011;56520;49.066;8.660;2024-01-07T12:16:44;4.45;;;1.65;;
69358;SDS011;56520;49.066;8.660;2024-01-07T12:19:10;3.60;;;1.33;;
69358;SDS011;56520;49.066;8.660;2024-01-07T12:21:36;3.08;;;1.17;;
69358;SDS011;56520;49.066;8.660;2024-01-07T12:24:03;3.92;;;1.17;;
69358;SDS011;56520;49.066;8.660;2024-01-07T12:26:29;3.78;;;1.40;;
69358;SDS011;56520;49.066;8.660;2024-01-07T12:28:56;5.45;;;2.00;;
69358;SDS011;56520;49.066;8.660;2024-01-07T12:31:25;3.72;;;1.42;;
69358;SDS011;56520;49.066;8.660;2024-01-07T12:33:51;3.63;;;1.52;;
69358;SDS011;56520;49.066;8.660;2024-01-07T12:36:20;4.57;;;1.73;;
69358;SDS011;56520;49.066;8.660;2024-01-07T12:38:47;4.75;;;2.20;;
69358;SDS011;56520;49.066;8.660;2024-01-07T12:43:38;4.65;;;1.65;;
69358;SDS011;56520;49.066;8.660;2024-01-07T12:46:03;3.47;;;1.48;;
69358;SDS011;56520;49.066;8.660;2024-01-07T12:48:30;4.00;;;1.55;;
69358;SDS011;56520;49.066;8.660;2024-01-07T12:53:22;3.15;;;1.38;;
69358;SDS011;56520;49.066;8.660;2024-01-07T12:55:47;3.22;;;1.40;;
69358;SDS011;56520;49.066;8.660;2024-01-07T13:00:38;2.97;;;1.07;;
69358;SDS011;56520;49.066;8.660;2024-01-07T13:03:05;3.88;;;1.83;;
69358;SDS011;56520;49.066;8.660;2024-01-07T13:05:32;5.00;;;1.45;;
69358;SDS011;56520;49.066;8.660;2024-01-07T13:10:23;4.43;;;1.33;;
69358;SDS011;56520;49.066;8.660;2024-01-07T13:12:50;3.88;;;1.83;;
69358;SDS011;56520;49.066;8.660;2024-01-07T13:15:15;4.05;;;1.73;;
69358;SDS011;56520;49.066;8.660;2024-01-07T13:20:07;3.60;;;1.17;;
69358;SDS011;56520;49.066;8.660;2024-01-07T13:22:36;2.75;;;1.08;;
69358;SDS011;56520;49.066;8.660;2024-01-07T13:25:05;5.43;;;1.85;;
69358;SDS011;56520;49.066;8.660;2024-01-07T13:27:31;4.13;;;1.63;;
69358;SDS011;56520;49.066;8.660;2024-01-07T13:32:22;3.27;;;1.40;;
69358;SDS011;56520;49.066;8.660;2024-01-07T13:34:47;3.33;;;1.45;;
69358;SDS011;56520;49.066;8.660;2024-01-07T13:37:13;4.35;;;1.60;;
69358;SDS011;56520;49.066;8.660;2024-01-07T13:42:04;2.80;;;1.20;;
69358;SDS011;56520;49.066;8.660;2024-01-07T13:44:29;3.42;;;1.40;;
69358;SDS011;56520;49.066;8.660;2024-01-07T13:49:20;4.17;;;1.63;;
69358;SDS011;56520;49.066;8.660;2024-01-07T13:54:11;2.93;;;1.20;;
69358;SDS011;56520;49.066;8.660;2024-01-07T13:56:39;2.92;;;1.20;;
69358;SDS011;56520;49.066;8.660;2024-01-07T13:59:09;4.68;;;1.98;;
69358;SDS011;56520;49.066;8.660;2024-01-07T14:04:04;5.15;;;1.70;;
69358;SDS011;56520;49.066;8.660;2024-01-07T14:08:55;4.10;;;2.13;;
69358;SDS011;56520;49.066;8.660;2024-01-07T14:13:46;2.78;;;1.23;;
69358;SDS011;56520;49.066;8.660;2024-01-07T14:18:38;5.70;;;1.33;;
69358;SDS011;56520;49.066;8.660;2024-01-07T14:21:04;5.68;;;2.15;;
69358;SDS011;56520;49.066;8.660;2024-01-07T14:25:56;5.90;;;2.13;;
69358;SDS011;56520;49.066;8.660;2024-01-07T14:30:47;4.35;;;1.33;;
69358;SDS011;56520;49.066;8.660;2024-01-07T14:35:38;2.88;;;1.33;;
69358;SDS011;56520;49.066;8.660;2024-01-07T14:40:29;4.20;;;1.53;;
69358;SDS011;56520;49.066;8.660;2024-01-07T14:42:54;3.45;;;1.63;;
69358;SDS011;56520;49.066;8.660;2024-01-07T14:45:23;5.95;;;1.75;;
69358;SDS011;56520;49.066;8.660;2024-01-07T14:47:51;3.95;;;1.42;;
69358;SDS011;56520;49.066;8.660;2024-01-07T14:52:43;5.18;;;1.88;;
69358;SDS011;56520;49.066;8.660;2024-01-07T14:55:09;4.90;;;1.80;;
69358;SDS011;56520;49.066;8.660;2024-01-07T15:00:00;4.40;;;1.23;;
69358;SDS011;56520;49.066;8.660;2024-01-07T15:02:25;4.43;;;2.08;;
69358;SDS011;56520;49.066;8.660;2024-01-07T15:07:19;4.35;;;1.48;;
69358;SDS011;56520;49.066;8.660;2024-01-07T15:09:44;6.07;;;3.03;;
69358;SDS011;56520;49.066;8.660;2024-01-07T15:14:35;6.47;;;2.67;;
69358;SDS011;56520;49.066;8.660;2024-01-07T15:17:01;10.98;;;3.92;;
69358;SDS011;56520;49.066;8.660;2024-01-07T15:21:52;11.50;;;4.70;;
69358;SDS011;56520;49.066;8.660;2024-01-07T15:26:43;7.72;;;2.75;;
69358;SDS011;56520;49.066;8.660;2024-01-07T15:31:34;11.03;;;3.77;;
69358;SDS011;56520;49.066;8.660;2024-01-07T15:36:24;6.22;;;2.25;;
69358;SDS011;56520;49.066;8.660;2024-01-07T15:38:50;6.57;;;2.15;;
69358;SDS011;56520;49.066;8.660;2024-01-07T15:43:40;3.38;;;1.40;;
69358;SDS011;56520;49.066;8.660;2024-01-07T15:48:31;6.30;;;1.40;;
69358;SDS011;56520;49.066;8.660;2024-01-07T15:50:57;4.60;;;1.85;;
69358;SDS011;56520;49.066;8.660;2024-01-07T15:53:23;4.00;;;1.80;;
69358;SDS011;56520;49.066;8.660;2024-01-07T15:55:54;3.78;;;1.52;;
69358;SDS011;56520;49.066;8.660;2024-01-07T15:58:19;4.85;;;2.05;;
69358;SDS011;56520;49.066;8.660;2024-01-07T16:00:45;4.75;;;1.55;;
69358;SDS011;56520;49.066;8.660;2024-01-07T16:05:36;2.53;;;1.23;;
69358;SDS011;56520;49.066;8.660;2024-01-07T16:10:28;2.70;;;1.30;;
69358;SDS011;56520;49.066;8.660;2024-01-07T16:15:18;5.20;;;1.87;;
69358;SDS011;56520;49.066;8.660;2024-01-07T16:20:09;3.30;;;1.35;;
69358;SDS011;56520;49.066;8.660;2024-01-07T16:22:36;3.72;;;1.52;;
69358;SDS011;56520;49.066;8.660;2024-01-07T16:25:02;3.60;;;1.83;;
69358;SDS011;56520;49.066;8.660;2024-01-07T16:27:30;4.10;;;1.58;;
69358;SDS011;56520;49.066;8.660;2024-01-07T16:29:56;3.72;;;1.52;;
69358;SDS011;56520;49.066;8.660;2024-01-07T16:34:46;3.08;;;1.27;;
69358;SDS011;56520;49.066;8.660;2024-01-07T16:39:37;2.40;;;0.97;;
69358;SDS011;56520;49.066;8.660;2024-01-07T16:44:28;2.40;;;0.95;;
69358;SDS011;56520;49.066;8.660;2024-01-07T16:49:19;2.63;;;1.07;;
69358;SDS011;56520;49.066;8.660;2024-01-07T16:51:44;4.45;;;1.77;;
69358;SDS011;56520;49.066;8.660;2024-01-07T16:56:35;2.60;;;1.17;;
69358;SDS011;56520;49.066;8.660;2024-01-07T17:01:26;1.38;;;0.60;;
69358;SDS011;56520;49.066;8.660;2024-01-07T17:03:54;4.78;;;1.38;;
69358;SDS011;56520;49.066;8.660;2024-01-07T17:06:22;2.97;;;0.85;;
69358;SDS011;56520;49.066;8.660;2024-01-07T17:08:48;4.63;;;1.90;;
69358;SDS011;56520;49.066;8.660;2024-01-07T17:11:13;4.13;;;1.45;;
69358;SDS011;56520;49.066;8.660;2024-01-07T17:16:05;2.60;;;1.27;;
69358;SDS011;56520;49.066;8.660;2024-01-07T17:18:31;3.97;;;1.63;;
69358;SDS011;56520;49.066;8.660;2024-01-07T17:20:57;4.40;;;1.75;;
69358;SDS011;56520;49.066;8.660;2024-01-07T17:25:48;2.13;;;0.98;;
69358;SDS011;56520;49.066;8.660;2024-01-07T17:30:39;2.95;;;1.40;;
69358;SDS011;56520;49.066;8.660;2024-01-07T17:35:34;1.50;;;0.82;;
69358;SDS011;56520;49.066;8.660;2024-01-07T17:37:59;5.03;;;1.90;;
69358;SDS011;56520;49.066;8.660;2024-01-07T17:40:25;3.70;;;1.52;;
69358;SDS011;56520;49.066;8.660;2024-01-07T17:42:50;2.67;;;1.17;;
69358;SDS011;56520;49.066;8.660;2024-01-07T17:45:17;3.63;;;1.45;;
69358;SDS011;56520;49.066;8.660;2024-01-07T17:47:45;3.67;;;1.60;;
69358;SDS011;56520;49.066;8.660;2024-01-07T17:50:10;3.92;;;1.30;;
69358;SDS011;56520;49.066;8.660;2024-01-07T17:52:36;4.60;;;1.52;;
69358;SDS011;56520;49.066;8.660;2024-01-07T17:55:01;2.58;;;1.10;;
69358;SDS011;56520;49.066;8.660;2024-01-07T17:57:27;3.08;;;1.35;;
69358;SDS011;56520;49.066;8.660;2024-01-07T17:59:55;4.55;;;1.40;;
69358;SDS011;56520;49.066;8.660;2024-01-07T18:02:22;2.78;;;1.10;;
69358;SDS011;56520;49.066;8.660;2024-01-07T18:07:15;3.03;;;1.00;;
69358;SDS011;56520;49.066;8.660;2024-01-07T18:09:40;2.42;;;1.02;;
69358;SDS011;56520;49.066;8.660;2024-01-07T18:12:06;4.88;;;1.85;;
69358;SDS011;56520;49.066;8.660;2024-01-07T18:14:31;5.88;;;1.38;;
69358;SDS011;56520;49.066;8.660;2024-01-07T18:16:57;3.03;;;1.30;;
69358;SDS011;56520;49.066;8.660;2024-01-07T18:19:22;2.70;;;1.08;;
69358;SDS011;56520;49.066;8.660;2024-01-07T18:21:48;3.00;;;1.20;;
69358;SDS011;56520;49.066;8.660;2024-01-07T18:24:14;3.08;;;1.02;;
69358;SDS011;56520;49.066;8.660;2024-01-07T18:26:39;3.50;;;1.48;;
69358;SDS011;56520;49.066;8.660;2024-01-07T18:29:05;2.95;;;1.33;;
69358;SDS011;56520;49.066;8.660;2024-01-07T18:33:56;4.68;;;1.73;;
69358;SDS011;56520;49.066;8.660;2024-01-07T18:36:21;2.03;;;0.85;;
69358;SDS011;56520;49.066;8.660;2024-01-07T18:38:47;4.80;;;1.90;;
69358;SDS011;56520;49.066;8.660;2024-01-07T18:41:18;4.70;;;1.73;;
69358;SDS011;56520;49.066;8.660;2024-01-07T18:43:44;4.15;;;1.98;;
69358;SDS011;56520;49.066;8.660;2024-01-07T18:46:09;16.85;;;1.77;;
69358;SDS011;56520;49.066;8.660;2024-01-07T18:48:35;4.10;;;1.55;;
69358;SDS011;56520;49.066;8.660;2024-01-07T18:51:01;4.72;;;1.77;;
69358;SDS011;56520;49.066;8.660;2024-01-07T18:53:27;2.95;;;1.05;;
69358;SDS011;56520;49.066;8.660;2024-01-07T18:55:52;4.10;;;1.85;;
69358;SDS011;56520;49.066;8.660;2024-01-07T18:58:18;2.95;;;1.50;;